Time;durP1;ratioP1;P1;durP2;ratioP2;P2;SDS_P1;SDS_P2;PMS_P1;PMS_P2;Temp;Humidity;BMP_temperature;BMP_pressure;BME280_temperature;BME280_humidity;BME280_pressure;Samples;Min_cycle;Max_cycle;Signal;HPM_P1;HPM_P2
2023/08/22 00:00:46;;;;;;;5.60;5.20;;;25.00;99.90;;;;;;5021067;28;20228;-70
2023/08/22 00:03:13;;;;;;;5.47;5.07;;;25.00;99.90;;;;;;5043525;28;20195;-69
2023/08/22 00:05:39;;;;;;;5.85;5.40;;;25.00;99.90;;;;;;5048704;28;20219;-70
2023/08/22 00:08:06;;;;;;;5.30;4.90;;;25.00;99.90;;;;;;5023318;28;20658;-70
2023/08/22 00:10:33;;;;;;;5.63;5.22;;;25.00;99.90;;;;;;5041825;28;20198;-69
2023/08/22 00:12:59;;;;;;;5.88;5.43;;;25.00;99.90;;;;;;5032816;28;20289;-70
2023/08/22 00:15:25;;;;;;;5.72;5.32;;;25.00;99.90;;;;;;5033663;28;20211;-69
2023/08/22 00:17:50;;;;;;;5.53;5.07;;;25.00;99.90;;;;;;5037846;28;20199;-70
2023/08/22 00:20:17;;;;;;;5.65;5.03;;;25.00;99.90;;;;;;5039977;28;20214;-70
2023/08/22 00:22:43;;;;;;;5.50;4.93;;;25.00;99.90;;;;;;5027821;28;20206;-70
2023/08/22 00:25:11;;;;;;;5.38;4.90;;;25.00;99.90;;;;;;5035368;28;20219;-70
2023/08/22 00:27:37;;;;;;;5.45;5.05;;;25.00;99.90;;;;;;5020208;28;20187;-70
2023/08/22 00:30:04;;;;;;;5.43;5.03;;;25.00;99.90;;;;;;5027166;28;20191;-69
2023/08/22 00:32:30;;;;;;;5.40;5.00;;;25.00;99.90;;;;;;5031526;28;20202;-70
2023/08/22 00:34:57;;;;;;;5.72;5.32;;;25.00;99.90;;;;;;5039368;28;20668;-70
2023/08/22 00:37:23;;;;;;;5.93;5.50;;;25.00;99.90;;;;;;5029677;28;20179;-70
2023/08/22 00:39:50;;;;;;;5.15;4.85;;;25.00;99.90;;;;;;5032937;28;20213;-70
2023/08/22 00:42:15;;;;;;;5.65;5.25;;;25.00;99.90;;;;;;5039093;28;20186;-69
2023/08/22 00:44:41;;;;;;;5.30;4.90;;;25.00;99.90;;;;;;5019202;28;20203;-70
2023/08/22 00:47:08;;;;;;;4.97;4.65;;;25.00;99.90;;;;;;5043002;28;20222;-69
2023/08/22 00:49:35;;;;;;;5.60;5.20;;;25.00;99.90;;;;;;5051139;28;20186;-70
2023/08/22 00:52:03;;;;;;;5.38;4.97;;;24.90;99.90;;;;;;5026476;28;20190;-69
2023/08/22 00:54:30;;;;;;;5.85;5.35;;;25.00;99.90;;;;;;5033271;28;20716;-70
2023/08/22 00:56:57;;;;;;;5.40;5.00;;;25.00;99.90;;;;;;5028035;28;20275;-69
2023/08/22 00:59:26;;;;;;;5.47;4.97;;;25.00;99.90;;;;;;5027263;28;20223;-70
2023/08/22 01:01:52;;;;;;;5.30;4.90;;;25.00;99.90;;;;;;5030912;28;20227;-70
2023/08/22 01:04:19;;;;;;;4.97;4.57;;;25.00;99.90;;;;;;5047236;28;20214;-70
2023/08/22 01:07:06;;;;;;;5.45;5.05;;;24.90;99.90;;;;;;5022757;28;20175;-70
2023/08/22 01:10:02;;;;;;;5.90;5.32;;;25.00;99.90;;;;;;5040303;28;20717;-70
2023/08/22 01:12:57;;;;;;;5.47;5.07;;;25.00;99.90;;;;;;5012510;28;20184;-70
2023/08/22 01:15:35;;;;;;;5.95;5.45;;;25.00;99.90;;;;;;5031718;28;20206;-70
2023/08/22 01:18:06;;;;;;;5.45;5.05;;;24.90;99.90;;;;;;5039054;28;20183;-70
2023/08/22 01:20:34;;;;;;;5.45;5.05;;;24.90;99.90;;;;;;5049150;28;20216;-70
2023/08/22 01:23:00;;;;;;;4.95;4.65;;;25.00;99.90;;;;;;5033479;28;20285;-70
2023/08/22 01:25:28;;;;;;;6.10;5.63;;;25.00;99.90;;;;;;5040982;28;20232;-70
2023/08/22 01:28:29;;;;;;;5.55;5.15;;;25.00;99.90;;;;;;5030884;28;20183;-70
2023/08/22 01:31:17;;;;;;;5.32;4.93;;;24.90;99.90;;;;;;5027352;28;20215;-69
2023/08/22 01:34:05;;;;;;;4.78;4.47;;;25.00;99.90;;;;;;5026099;28;20186;-70
2023/08/22 01:36:33;;;;;;;5.15;4.75;;;25.00;99.90;;;;;;5040382;28;20650;-70
2023/08/22 01:39:04;;;;;;;5.10;4.80;;;24.90;99.90;;;;;;5030711;28;20249;-70
2023/08/22 01:41:30;;;;;;;5.68;5.28;;;24.90;99.90;;;;;;5030722;28;20226;-70
2023/08/22 01:43:55;;;;;;;5.93;5.53;;;24.90;99.90;;;;;;5022371;28;20187;-70
2023/08/22 01:46:21;;;;;;;4.65;4.35;;;24.90;99.90;;;;;;5044028;28;20218;-70
2023/08/22 01:48:47;;;;;;;4.88;4.57;;;24.90;99.90;;;;;;5026335;28;20183;-70
2023/08/22 01:51:13;;;;;;;5.38;4.97;;;24.90;99.90;;;;;;5043166;28;20183;-70
2023/08/22 01:53:41;;;;;;;5.57;5.18;;;24.90;99.90;;;;;;5035563;28;20254;-70
2023/08/22 01:56:07;;;;;;;5.40;5.00;;;24.90;99.90;;;;;;5036779;28;20311;-68
2023/08/22 01:58:32;;;;;;;4.88;4.53;;;24.90;99.90;;;;;;5042914;28;20205;-70
2023/08/22 02:00:58;;;;;;;4.88;4.57;;;24.90;99.90;;;;;;5040771;28;20214;-70
2023/08/22 02:03:24;;;;;;;5.47;5.07;;;24.90;99.90;;;;;;5035301;28;20193;-70
2023/08/22 02:05:50;;;;;;;4.85;4.55;;;24.90;99.90;;;;;;5029917;28;20210;-70
2023/08/22 02:08:17;;;;;;;6.00;5.45;;;24.90;99.90;;;;;;5036738;28;20593;-70
2023/08/22 02:10:43;;;;;;;4.80;4.50;;;24.90;99.90;;;;;;5017662;28;20210;-70
2023/08/22 02:13:08;;;;;;;5.30;4.90;;;24.90;99.90;;;;;;5026826;28;20187;-70
2023/08/22 02:15:34;;;;;;;5.30;4.90;;;24.90;99.90;;;;;;5016563;28;20227;-70
2023/08/22 02:18:00;;;;;;;5.07;4.78;;;25.00;99.90;;;;;;5017775;28;20195;-70
2023/08/22 02:20:26;;;;;;;5.05;4.75;;;24.90;99.90;;;;;;5017467;28;20222;-70
2023/08/22 02:22:53;;;;;;;5.10;4.72;;;24.90;99.90;;;;;;5034441;28;20184;-70
2023/08/22 02:25:19;;;;;;;4.82;4.47;;;24.90;99.90;;;;;;5033670;28;20694;-70
2023/08/22 02:27:44;;;;;;;4.78;4.47;;;24.90;99.90;;;;;;5017420;28;20186;-70
2023/08/22 02:30:11;;;;;;;4.85;4.55;;;24.90;99.90;;;;;;5028825;28;20597;-70
2023/08/22 02:32:39;;;;;;;5.28;4.88;;;24.90;99.90;;;;;;5049657;28;20242;-70
2023/08/22 02:35:06;;;;;;;5.28;4.88;;;24.90;99.90;;;;;;5039352;28;20211;-70
2023/08/22 02:37:32;;;;;;;4.90;4.60;;;24.90;99.90;;;;;;5031695;28;20254;-70
2023/08/22 02:39:58;;;;;;;5.13;4.72;;;24.90;99.90;;;;;;5033754;28;20187;-70
2023/08/22 02:42:23;;;;;;;5.10;4.70;;;24.90;99.90;;;;;;5033784;28;20179;-71
2023/08/22 02:44:49;;;;;;;5.20;4.80;;;24.90;99.90;;;;;;5025565;28;20207;-70
2023/08/22 02:47:15;;;;;;;4.90;4.50;;;24.90;99.90;;;;;;5040624;28;20178;-70
2023/08/22 02:49:41;;;;;;;5.30;4.90;;;24.90;99.90;;;;;;5036891;28;20195;-70
2023/08/22 02:52:07;;;;;;;5.28;4.97;;;24.90;99.90;;;;;;5039393;28;20187;-70
2023/08/22 02:54:33;;;;;;;4.82;4.53;;;24.90;99.90;;;;;;5030858;28;20234;-70
2023/08/22 02:56:59;;;;;;;4.90;4.55;;;24.90;99.90;;;;;;5041672;28;20198;-69
2023/08/22 02:59:25;;;;;;;4.95;4.57;;;24.90;99.90;;;;;;5050160;28;20190;-70
2023/08/22 03:01:50;;;;;;;4.57;4.28;;;24.90;99.90;;;;;;5041685;28;20211;-69
2023/08/22 03:04:16;;;;;;;5.65;5.15;;;24.90;99.90;;;;;;5047429;28;20213;-70
2023/08/22 03:06:43;;;;;;;5.00;4.60;;;24.90;99.90;;;;;;5026000;28;20739;-70
2023/08/22 03:09:08;;;;;;;5.18;4.78;;;24.90;99.90;;;;;;5041699;28;20171;-70
2023/08/22 03:11:34;;;;;;;4.90;4.50;;;24.90;99.90;;;;;;5030077;28;20188;-70
2023/08/22 03:14:00;;;;;;;4.22;3.92;;;24.90;99.90;;;;;;5031247;28;20191;-70
2023/08/22 03:16:28;;;;;;;5.32;4.93;;;24.90;99.90;;;;;;5041556;28;20183;-70
2023/08/22 03:18:54;;;;;;;5.10;4.70;;;24.90;99.90;;;;;;5044603;28;20217;-70
2023/08/22 03:21:19;;;;;;;5.05;4.75;;;24.90;99.90;;;;;;5028386;28;20203;-70
2023/08/22 03:23:45;;;;;;;4.63;4.32;;;24.90;99.90;;;;;;5025352;28;20206;-70
2023/08/22 03:26:14;;;;;;;5.03;4.63;;;24.90;99.90;;;;;;5041018;28;20583;-70
2023/08/22 03:28:41;;;;;;;4.65;4.35;;;24.90;99.90;;;;;;5043227;28;20179;-70
2023/08/22 03:31:08;;;;;;;4.30;4.00;;;24.80;99.90;;;;;;5044736;28;20250;-70
2023/08/22 03:33:33;;;;;;;4.78;4.40;;;24.80;99.90;;;;;;5027133;28;20194;-70
2023/08/22 03:36:03;;;;;;;4.63;4.30;;;24.90;99.90;;;;;;5025670;28;20206;-69
2023/08/22 03:38:29;;;;;;;4.93;4.53;;;24.90;99.90;;;;;;5044587;28;20190;-69
2023/08/22 03:40:56;;;;;;;4.95;4.60;;;24.90;99.90;;;;;;5027642;28;20205;-70
2023/08/22 03:43:23;;;;;;;5.20;4.80;;;24.90;99.90;;;;;;5036689;28;20187;-70
2023/08/22 03:45:48;;;;;;;4.45;4.15;;;24.80;99.90;;;;;;5049025;28;20220;-70
2023/08/22 03:48:15;;;;;;;5.03;4.63;;;24.80;99.90;;;;;;5032807;28;20179;-70
2023/08/22 03:50:42;;;;;;;4.50;4.20;;;24.80;99.90;;;;;;5040522;28;20190;-70
2023/08/22 03:53:10;;;;;;;4.57;4.18;;;24.80;99.90;;;;;;5012366;28;20184;-70
2023/08/22 03:55:37;;;;;;;4.72;4.43;;;24.80;99.90;;;;;;5043896;28;20218;-70
2023/08/22 03:58:04;;;;;;;4.68;4.38;;;24.80;99.90;;;;;;5032331;28;20187;-69
2023/08/22 04:00:30;;;;;;;4.85;4.45;;;24.80;99.90;;;;;;5040568;28;20593;-70
2023/08/22 04:02:58;;;;;;;4.90;4.50;;;24.80;99.90;;;;;;5023917;28;20175;-70
2023/08/22 04:05:25;;;;;;;4.95;4.55;;;24.80;99.90;;;;;;5039957;28;20203;-70
2023/08/22 04:07:52;;;;;;;4.40;4.10;;;24.80;99.90;;;;;;5048353;28;20677;-70
2023/08/22 04:10:19;;;;;;;4.57;4.18;;;24.80;99.90;;;;;;5040345;28;20195;-69
2023/08/22 04:12:45;;;;;;;4.90;4.60;;;24.80;99.90;;;;;;5046542;28;20192;-67
2023/08/22 04:15:12;;;;;;;4.72;4.43;;;24.80;99.90;;;;;;5023810;28;20261;-70
2023/08/22 04:17:41;;;;;;;4.65;4.30;;;24.80;99.90;;;;;;5023835;28;20221;-71
2023/08/22 04:20:12;;;;;;;4.93;4.50;;;24.80;99.90;;;;;;5028464;28;20281;-70
2023/08/22 04:22:41;;;;;;;4.93;4.60;;;24.80;99.90;;;;;;5026137;28;20218;-72
2023/08/22 04:25:11;;;;;;;4.68;4.38;;;24.80;99.90;;;;;;5031752;28;20213;-70
2023/08/22 04:27:38;;;;;;;5.03;4.63;;;24.80;99.90;;;;;;5015273;28;20191;-70
2023/08/22 04:30:05;;;;;;;4.80;4.50;;;24.80;99.90;;;;;;5015279;28;20195;-70
2023/08/22 04:32:31;;;;;;;4.40;4.10;;;24.80;99.90;;;;;;5031864;28;20191;-70
2023/08/22 04:34:59;;;;;;;4.72;4.43;;;24.80;99.90;;;;;;5023122;28;20206;-70
2023/08/22 04:37:25;;;;;;;4.53;4.22;;;24.80;99.90;;;;;;5034814;28;20182;-70
2023/08/22 04:39:50;;;;;;;5.03;4.63;;;24.80;99.90;;;;;;5032392;28;20592;-69
2023/08/22 04:42:29;;;;;;;4.82;4.53;;;24.80;99.90;;;;;;5032519;28;20199;-70
2023/08/22 04:45:01;;;;;;;4.40;4.10;;;24.80;99.90;;;;;;5015275;28;20298;-70
2023/08/22 04:47:27;;;;;;;5.13;4.82;;;24.80;99.90;;;;;;5039477;28;20243;-70
2023/08/22 04:49:52;;;;;;;4.30;4.00;;;24.80;99.90;;;;;;5013665;28;20190;-70
2023/08/22 04:52:18;;;;;;;4.80;4.50;;;24.80;99.90;;;;;;5029039;28;20186;-71
2023/08/22 04:54:44;;;;;;;5.00;4.70;;;24.80;99.90;;;;;;5050759;28;20284;-70
2023/08/22 04:57:10;;;;;;;4.32;4.03;;;24.80;99.90;;;;;;5047672;28;20191;-70
2023/08/22 04:59:37;;;;;;;4.30;4.00;;;24.80;99.90;;;;;;5031356;28;20186;-69
2023/08/22 05:02:02;;;;;;;4.63;4.32;;;24.80;99.90;;;;;;5047126;28;20602;-69
2023/08/22 05:04:30;;;;;;;4.93;4.53;;;24.80;99.90;;;;;;5030833;28;20281;-70
2023/08/22 05:06:56;;;;;;;4.93;4.63;;;24.80;99.90;;;;;;5030463;28;20184;-70
2023/08/22 05:09:21;;;;;;;4.30;4.00;;;24.80;99.90;;;;;;5030779;28;20183;-69
2023/08/22 05:11:49;;;;;;;4.43;4.13;;;24.80;99.90;;;;;;5022569;28;20241;-70
2023/08/22 05:14:15;;;;;;;4.32;4.03;;;24.80;99.90;;;;;;5027011;28;20214;-70
2023/08/22 05:16:43;;;;;;;4.55;4.15;;;24.80;99.90;;;;;;5043924;28;20223;-70
2023/08/22 05:19:09;;;;;;;4.32;4.03;;;24.80;99.90;;;;;;5034119;28;20272;-71
2023/08/22 05:21:35;;;;;;;4.97;4.32;;;24.80;99.90;;;;;;5035817;28;20211;-70
2023/08/22 05:24:01;;;;;;;4.57;4.28;;;24.80;99.90;;;;;;5033883;28;20189;-70
2023/08/22 05:26:27;;;;;;;4.30;4.00;;;24.80;99.90;;;;;;5034046;28;20183;-70
2023/08/22 05:28:53;;;;;;;4.30;3.97;;;24.80;99.90;;;;;;5039936;28;20224;-70
2023/08/22 05:31:23;;;;;;;4.43;4.07;;;24.80;99.90;;;;;;5030867;28;20198;-69
2023/08/22 05:33:51;;;;;;;4.43;4.13;;;24.80;99.90;;;;;;5038551;28;20187;-70
2023/08/22 05:36:17;;;;;;;4.45;4.15;;;24.80;99.90;;;;;;5014242;28;20217;-69
2023/08/22 05:38:43;;;;;;;4.85;4.50;;;24.80;99.90;;;;;;5027542;28;20188;-69
2023/08/22 05:41:09;;;;;;;4.60;4.20;;;24.80;99.90;;;;;;5017909;28;20236;-70
2023/08/22 05:43:36;;;;;;;4.55;4.20;;;24.80;99.90;;;;;;5023045;28;20202;-70
2023/08/22 05:46:02;;;;;;;5.10;4.70;;;24.80;99.90;;;;;;5039530;28;20290;-69
2023/08/22 05:48:30;;;;;;;4.82;4.53;;;24.80;99.90;;;;;;5039010;28;20186;-70
2023/08/22 05:51:01;;;;;;;4.47;4.18;;;24.80;99.90;;;;;;5030027;28;20191;-70
2023/08/22 05:53:27;;;;;;;4.43;4.13;;;24.80;99.90;;;;;;5028365;28;20297;-70
2023/08/22 05:55:53;;;;;;;4.72;4.40;;;24.80;99.90;;;;;;5031887;28;20769;-71
2023/08/22 05:58:19;;;;;;;5.07;4.70;;;24.80;99.90;;;;;;5043551;28;20214;-70
2023/08/22 06:00:45;;;;;;;5.03;4.63;;;24.80;99.90;;;;;;5041245;28;20630;-70
2023/08/22 06:03:11;;;;;;;4.90;4.60;;;24.80;99.90;;;;;;5030311;28;20183;-70
2023/08/22 06:05:37;;;;;;;4.40;4.00;;;24.80;99.90;;;;;;5018930;28;20587;-70
2023/08/22 06:08:03;;;;;;;4.47;4.18;;;24.80;99.90;;;;;;5029830;28;20199;-70
2023/08/22 06:10:28;;;;;;;4.68;4.38;;;24.80;99.90;;;;;;5044625;28;20205;-70
2023/08/22 06:12:54;;;;;;;4.68;4.38;;;24.80;99.90;;;;;;5033026;28;20199;-70
2023/08/22 06:15:20;;;;;;;4.68;4.28;;;24.80;99.90;;;;;;5044906;28;20298;-70
2023/08/22 06:17:47;;;;;;;4.55;4.22;;;24.80;99.90;;;;;;5029992;28;20732;-69
2023/08/22 06:20:15;;;;;;;4.50;4.20;;;24.80;99.90;;;;;;5029877;28;20253;-70
2023/08/22 06:22:41;;;;;;;4.90;4.50;;;24.80;99.90;;;;;;5026731;28;20231;-70
2023/08/22 06:25:08;;;;;;;4.30;3.97;;;24.80;99.90;;;;;;5029402;28;20215;-70
2023/08/22 06:27:33;;;;;;;5.10;4.70;;;24.80;99.90;;;;;;5028460;28;20195;-70
2023/08/22 06:30:01;;;;;;;4.70;4.40;;;24.80;99.90;;;;;;5014978;28;20191;-70
2023/08/22 06:32:30;;;;;;;4.85;4.45;;;24.80;99.90;;;;;;5029942;28;20241;-70
2023/08/22 06:35:00;;;;;;;5.15;4.75;;;24.80;99.90;;;;;;5029774;28;20694;-70
2023/08/22 06:37:26;;;;;;;4.88;4.47;;;24.80;99.90;;;;;;5038208;28;20214;-70
2023/08/22 06:39:53;;;;;;;5.32;4.93;;;24.80;99.90;;;;;;5012123;28;20230;-69
2023/08/22 06:42:18;;;;;;;4.68;4.38;;;24.80;99.90;;;;;;5037767;28;20211;-70
2023/08/22 06:44:49;;;;;;;4.88;4.57;;;24.80;99.90;;;;;;5044413;28;20467;-69
2023/08/22 06:47:15;;;;;;;5.03;4.72;;;24.80;99.90;;;;;;5034622;28;20654;-70
2023/08/22 06:49:41;;;;;;;4.80;4.40;;;24.80;99.90;;;;;;5016907;28;20195;-70
2023/08/22 06:52:07;;;;;;;5.70;5.30;;;24.80;99.90;;;;;;5036093;28;20194;-69
2023/08/22 06:54:32;;;;;;;4.97;4.57;;;24.80;99.90;;;;;;5028428;28;20197;-70
2023/08/22 06:56:59;;;;;;;5.10;4.70;;;24.80;99.90;;;;;;5026870;28;20187;-70
2023/08/22 06:59:24;;;;;;;4.93;4.50;;;24.80;99.90;;;;;;5042611;28;20217;-70
2023/08/22 07:01:50;;;;;;;5.32;4.82;;;24.80;99.90;;;;;;5049838;28;20214;-70
2023/08/22 07:04:16;;;;;;;5.30;4.80;;;24.80;99.90;;;;;;5045824;28;20189;-70
2023/08/22 07:06:41;;;;;;;5.10;4.70;;;24.80;99.90;;;;;;5044867;28;20182;-70
2023/08/22 07:09:07;;;;;;;5.10;4.70;;;24.80;99.90;;;;;;5044632;28;20303;-70
2023/08/22 07:11:33;;;;;;;5.25;4.78;;;24.80;99.90;;;;;;5043320;28;20202;-69
2023/08/22 07:13:59;;;;;;;5.53;5.03;;;24.80;99.90;;;;;;5050240;28;20252;-69
2023/08/22 07:16:24;;;;;;;5.50;5.07;;;24.80;99.90;;;;;;5029419;28;20187;-70
2023/08/22 07:18:50;;;;;;;5.55;5.15;;;24.80;99.90;;;;;;5045709;28;20251;-69
2023/08/22 07:21:16;;;;;;;5.78;5.18;;;24.80;99.90;;;;;;5042695;28;20195;-69
2023/08/22 07:23:41;;;;;;;4.75;4.30;;;24.80;99.90;;;;;;5048026;28;20182;-69
2023/08/22 07:26:07;;;;;;;5.47;5.00;;;24.80;99.90;;;;;;5021986;28;20207;-70
2023/08/22 07:28:33;;;;;;;4.78;4.38;;;24.80;99.90;;;;;;5022280;28;20274;-69
2023/08/22 07:31:03;;;;;;;5.00;4.60;;;24.80;99.90;;;;;;5041369;28;20190;-70
2023/08/22 07:33:30;;;;;;;5.30;4.90;;;24.80;99.90;;;;;;5022894;28;20275;-69
2023/08/22 07:35:55;;;;;;;5.35;4.85;;;24.80;99.90;;;;;;5025379;28;20231;-69
2023/08/22 07:38:21;;;;;;;4.53;4.22;;;24.80;99.90;;;;;;5028424;28;20190;-68
2023/08/22 07:40:47;;;;;;;5.25;4.80;;;24.80;99.90;;;;;;5053442;28;20217;-69
2023/08/22 07:43:13;;;;;;;5.20;4.80;;;24.80;99.90;;;;;;5042197;28;20183;-69
2023/08/22 07:45:38;;;;;;;5.30;4.90;;;24.80;99.90;;;;;;5033835;28;20285;-69
2023/08/22 07:48:05;;;;;;;4.80;4.50;;;24.80;99.90;;;;;;5026985;28;20774;-69
2023/08/22 07:50:31;;;;;;;4.90;4.55;;;24.80;99.90;;;;;;5018614;28;20671;-70
2023/08/22 07:52:57;;;;;;;5.20;4.80;;;24.80;99.90;;;;;;5020264;28;20274;-69
2023/08/22 07:55:23;;;;;;;5.10;4.70;;;24.80;99.90;;;;;;5036144;28;20213;-68
2023/08/22 07:57:51;;;;;;;5.22;4.82;;;24.80;99.90;;;;;;5035535;28;20194;-69
2023/08/22 08:00:18;;;;;;;5.43;5.03;;;24.80;99.90;;;;;;5037214;28;20190;-70
2023/08/22 08:02:45;;;;;;;5.03;4.63;;;24.80;99.90;;;;;;5024352;28;20216;-70
2023/08/22 08:05:12;;;;;;;5.47;4.72;;;24.80;99.90;;;;;;5039304;28;20274;-69
2023/08/22 08:07:39;;;;;;;5.65;4.80;;;24.80;99.90;;;;;;5038216;28;20552;-69
2023/08/22 08:10:05;;;;;;;5.35;4.85;;;24.80;99.90;;;;;;5043494;28;20194;-70
2023/08/22 08:12:31;;;;;;;5.50;5.10;;;24.80;99.90;;;;;;5039520;28;20225;-69
2023/08/22 08:14:56;;;;;;;5.82;5.32;;;24.80;99.90;;;;;;5028004;28;20218;-68
2023/08/22 08:17:22;;;;;;;5.18;4.78;;;24.80;99.90;;;;;;5024838;28;20195;-69
2023/08/22 08:19:48;;;;;;;5.30;4.90;;;24.90;99.90;;;;;;5015286;28;20206;-69
2023/08/22 08:22:14;;;;;;;5.03;4.63;;;24.80;99.90;;;;;;5031258;28;20218;-69
2023/08/22 08:24:40;;;;;;;5.20;4.80;;;24.90;99.90;;;;;;5031409;28;20231;-69
2023/08/22 08:27:06;;;;;;;5.05;4.65;;;24.90;99.90;;;;;;5031448;28;20194;-69
2023/08/22 08:29:32;;;;;;;5.00;4.60;;;24.90;99.90;;;;;;5041055;28;20627;-69
2023/08/22 08:31:58;;;;;;;4.95;4.65;;;24.90;99.90;;;;;;5039119;28;20262;-70
2023/08/22 08:34:27;;;;;;;5.13;4.72;;;24.90;99.90;;;;;;5034872;28;20225;-70
2023/08/22 08:36:53;;;;;;;5.50;5.00;;;24.90;99.90;;;;;;5044879;28;20191;-70
2023/08/22 08:39:19;;;;;;;5.50;4.97;;;24.90;99.90;;;;;;5034150;28;20190;-69
2023/08/22 08:42:12;;;;;;;5.53;5.13;;;24.90;99.90;;;;;;5043760;28;20239;-69
2023/08/22 08:44:38;;;;;;;5.03;4.63;;;24.90;99.90;;;;;;5045311;28;20686;-69
2023/08/22 08:47:08;;;;;;;5.90;5.40;;;24.90;99.90;;;;;;5014744;28;20191;-70
2023/08/22 08:49:35;;;;;;;5.70;5.20;;;24.90;99.90;;;;;;5031225;28;20183;-69
2023/08/22 08:52:02;;;;;;;5.30;4.78;;;24.90;99.90;;;;;;5031219;28;20666;-68
2023/08/22 08:54:28;;;;;;;7.47;5.35;;;25.00;99.90;;;;;;5039450;28;20206;-70
2023/08/22 08:56:55;;;;;;;5.13;4.80;;;24.90;99.90;;;;;;5032202;28;20222;-70
2023/08/22 08:59:22;;;;;;;6.00;5.50;;;25.00;99.90;;;;;;5032337;28;20221;-69
2023/08/22 09:01:52;;;;;;;5.50;5.00;;;24.90;99.90;;;;;;5030717;28;20230;-69
2023/08/22 09:04:22;;;;;;;5.45;5.05;;;24.90;99.90;;;;;;5039767;28;20209;-69
2023/08/22 09:06:49;;;;;;;5.22;4.82;;;25.00;99.90;;;;;;5039203;28;20206;-69
2023/08/22 09:09:15;;;;;;;4.93;4.53;;;25.00;99.90;;;;;;5040760;28;20232;-69
2023/08/22 09:11:47;;;;;;;5.25;4.85;;;25.00;99.90;;;;;;5039343;28;20610;-69
2023/08/22 09:14:20;;;;;;;4.85;4.45;;;25.00;99.90;;;;;;5055392;28;20194;-69
2023/08/22 09:16:47;;;;;;;5.20;4.72;;;25.00;99.90;;;;;;5037449;28;20198;-70
2023/08/22 09:19:13;;;;;;;5.05;4.65;;;25.00;99.90;;;;;;5024459;28;20198;-70
2023/08/22 09:21:54;;;;;;;5.30;4.90;;;25.00;99.90;;;;;;5022038;28;20211;-69
2023/08/22 09:24:25;;;;;;;5.18;4.78;;;25.00;99.90;;;;;;5041285;28;20222;-70
2023/08/22 09:26:51;;;;;;;5.50;5.00;;;25.00;99.90;;;;;;5042244;28;20209;-70
2023/08/22 09:29:28;;;;;;;5.40;4.90;;;25.00;99.90;;;;;;5023797;28;20221;-70
2023/08/22 09:32:00;;;;;;;4.72;4.32;;;25.00;99.90;;;;;;5040213;28;20266;-70
2023/08/22 09:34:26;;;;;;;6.03;4.72;;;25.00;99.90;;;;;;5033718;28;20214;-70
2023/08/22 09:36:54;;;;;;;5.18;4.78;;;25.00;99.90;;;;;;5042523;28;20194;-70
2023/08/22 09:39:21;;;;;;;4.90;4.55;;;25.00;99.90;;;;;;5034227;28;20191;-70
2023/08/22 09:41:58;;;;;;;5.07;4.63;;;25.00;99.90;;;;;;5036076;28;20211;-69
2023/08/22 09:44:26;;;;;;;5.60;5.10;;;25.00;99.90;;;;;;5031632;28;20231;-69
2023/08/22 09:46:55;;;;;;;5.10;4.70;;;25.00;99.90;;;;;;5030602;28;20569;-70
2023/08/22 09:49:22;;;;;;;5.10;4.70;;;25.00;99.90;;;;;;5038730;28;20252;-69
2023/08/22 09:51:52;;;;;;;5.80;5.30;;;25.00;99.90;;;;;;5030764;28;20193;-69
2023/08/22 09:54:18;;;;;;;4.88;4.55;;;25.00;99.90;;;;;;5031323;28;20685;-69
2023/08/22 09:56:45;;;;;;;5.68;4.82;;;25.00;99.90;;;;;;5030742;28;20211;-69
2023/08/22 09:59:18;;;;;;;5.25;4.85;;;25.00;99.90;;;;;;5038497;28;20686;-69
2023/08/22 10:01:45;;;;;;;5.00;4.60;;;25.00;99.90;;;;;;5044357;28;20210;-69
2023/08/22 10:04:13;;;;;;;5.15;4.75;;;25.00;99.90;;;;;;5032576;28;20544;-69
2023/08/22 10:06:39;;;;;;;5.47;4.70;;;25.00;99.90;;;;;;5030534;28;20210;-69
2023/08/22 10:09:08;;;;;;;5.72;4.60;;;25.00;99.90;;;;;;5047035;28;20178;-69
2023/08/22 10:11:45;;;;;;;5.32;4.72;;;25.00;99.90;;;;;;5047610;28;20199;-69
2023/08/22 10:14:29;;;;;;;4.53;4.22;;;25.10;99.90;;;;;;5039697;28;20194;-68
2023/08/22 10:16:56;;;;;;;4.90;4.50;;;25.00;99.90;;;;;;5034304;28;20197;-69
2023/08/22 10:19:24;;;;;;;4.78;4.38;;;25.10;99.90;;;;;;5041459;28;20222;-68
2023/08/22 10:21:53;;;;;;;4.85;4.43;;;25.10;99.90;;;;;;5035229;28;20219;-68
2023/08/22 10:24:30;;;;;;;6.10;4.72;;;25.10;99.90;;;;;;5035476;28;20222;-69
2023/08/22 10:27:04;;;;;;;4.68;4.28;;;25.00;99.90;;;;;;5053981;28;20205;-69
2023/08/22 10:29:35;;;;;;;4.97;4.57;;;25.10;99.90;;;;;;5042320;28;20190;-70
2023/08/22 10:32:01;;;;;;;4.88;4.47;;;25.00;99.90;;;;;;5041545;28;20174;-69
2023/08/22 10:34:39;;;;;;;4.95;4.65;;;25.10;99.90;;;;;;5044073;28;20304;-69
2023/08/22 10:37:20;;;;;;;5.00;4.60;;;25.10;99.90;;;;;;5042142;28;20201;-69
2023/08/22 10:39:48;;;;;;;5.60;4.20;;;25.10;99.90;;;;;;5036008;28;20180;-68
2023/08/22 10:42:21;;;;;;;4.70;4.30;;;25.10;99.90;;;;;;5043385;28;20706;-70
2023/08/22 10:44:57;;;;;;;4.47;4.15;;;25.10;99.90;;;;;;5045857;28;20281;-68
2023/08/22 10:47:25;;;;;;;4.57;4.28;;;25.10;99.90;;;;;;5043951;28;20653;-70
2023/08/22 10:49:54;;;;;;;5.18;4.68;;;25.10;99.90;;;;;;5042311;28;20203;-69
2023/08/22 10:52:32;;;;;;;5.00;4.60;;;25.10;99.90;;;;;;5043591;28;20214;-68
2023/08/22 10:54:59;;;;;;;5.07;4.65;;;25.10;99.90;;;;;;5045120;28;20206;-69
2023/08/22 10:57:26;;;;;;;4.82;4.43;;;25.10;99.90;;;;;;5029073;28;20610;-69
2023/08/22 10:59:54;;;;;;;4.25;3.95;;;25.10;99.90;;;;;;5047520;28;20187;-69
2023/08/22 11:02:20;;;;;;;4.38;4.07;;;25.10;99.90;;;;;;5039519;28;20219;-69
2023/08/22 11:04:47;;;;;;;5.38;4.40;;;25.10;99.90;;;;;;5031941;28;20253;-69
2023/08/22 11:07:13;;;;;;;4.82;4.40;;;25.10;99.90;;;;;;5042380;28;20186;-69
2023/08/22 11:09:40;;;;;;;4.80;4.40;;;25.10;99.90;;;;;;5053308;28;20198;-69
2023/08/22 11:12:19;;;;;;;4.63;4.28;;;25.10;99.90;;;;;;5035027;28;20192;-70
2023/08/22 11:14:50;;;;;;;4.70;4.30;;;25.10;99.90;;;;;;5033032;28;20279;-66
2023/08/22 11:17:19;;;;;;;4.72;4.32;;;25.10;99.90;;;;;;5035423;28;20249;-69
2023/08/22 11:19:46;;;;;;;4.50;4.10;;;25.10;99.90;;;;;;5030033;28;20206;-70
2023/08/22 11:22:13;;;;;;;4.63;4.32;;;25.10;99.90;;;;;;5035637;28;20214;-69
2023/08/22 11:24:44;;;;;;;4.78;4.38;;;25.10;99.90;;;;;;5033688;28;20217;-70
2023/08/22 11:27:11;;;;;;;4.72;4.32;;;25.10;99.90;;;;;;5031149;28;20249;-69
2023/08/22 11:29:51;;;;;;;4.68;4.28;;;25.10;99.90;;;;;;5039100;28;20214;-70
2023/08/22 11:32:23;;;;;;;4.80;4.40;;;25.10;99.90;;;;;;5030762;28;20206;-67
2023/08/22 11:34:55;;;;;;;4.60;4.25;;;25.10;99.90;;;;;;5027845;28;20225;-69
2023/08/22 11:37:21;;;;;;;4.30;4.00;;;25.10;99.90;;;;;;5032724;28;20255;-69
2023/08/22 11:39:52;;;;;;;4.55;4.15;;;25.10;99.90;;;;;;5047695;28;20187;-69
2023/08/22 11:42:23;;;;;;;4.18;3.88;;;25.10;99.90;;;;;;5030621;28;20282;-69
2023/08/22 11:45:13;;;;;;;4.35;4.03;;;25.10;99.90;;;;;;5026384;28;20212;-69
2023/08/22 11:47:48;;;;;;;4.43;4.13;;;25.20;99.90;;;;;;5022981;28;20206;-70
2023/08/22 11:50:17;;;;;;;4.30;4.00;;;25.20;99.90;;;;;;5023330;28;20277;-69
2023/08/22 11:52:54;;;;;;;4.47;4.18;;;25.20;99.90;;;;;;5037514;28;20191;-69
2023/08/22 11:55:27;;;;;;;4.40;4.10;;;25.20;99.90;;;;;;5012497;28;20223;-69
2023/08/22 11:57:59;;;;;;;4.32;3.95;;;25.20;99.90;;;;;;5031802;28;20274;-70
2023/08/22 12:00:27;;;;;;;4.63;4.22;;;25.20;99.90;;;;;;5023985;28;20634;-69
2023/08/22 12:02:56;;;;;;;4.40;4.10;;;25.20;99.90;;;;;;5033390;28;20195;-68
2023/08/22 12:05:32;;;;;;;4.78;4.38;;;25.20;99.90;;;;;;5048275;28;20225;-69
2023/08/22 12:08:00;;;;;;;4.63;4.22;;;25.20;99.90;;;;;;5012391;28;20555;-70
2023/08/22 12:10:37;;;;;;;4.32;4.00;;;25.20;99.90;;;;;;5055579;28;20179;-70
2023/08/22 12:13:03;;;;;;;4.60;4.20;;;25.20;99.90;;;;;;5031982;28;20194;-69
2023/08/22 12:15:28;;;;;;;4.63;4.22;;;25.20;99.90;;;;;;5016686;28;20211;-70
2023/08/22 12:17:57;;;;;;;4.25;3.95;;;25.20;99.90;;;;;;5037591;28;20199;-69
2023/08/22 12:20:23;;;;;;;4.65;4.30;;;25.20;99.90;;;;;;5031637;28;20199;-69
2023/08/22 12:22:49;;;;;;;4.60;4.15;;;25.20;99.90;;;;;;5028430;28;20236;-68
2023/08/22 12:25:14;;;;;;;4.30;4.00;;;25.20;99.90;;;;;;5035591;28;20215;-69
2023/08/22 12:27:40;;;;;;;4.38;4.07;;;25.20;99.90;;;;;;5035299;28;20239;-69
2023/08/22 12:30:07;;;;;;;4.68;4.30;;;25.20;99.90;;;;;;5044360;28;20194;-69
2023/08/22 12:32:33;;;;;;;5.03;4.15;;;25.20;99.90;;;;;;5015653;28;20639;-69
2023/08/22 12:35:00;;;;;;;5.22;4.55;;;25.20;99.90;;;;;;5031289;28;20207;-70
2023/08/22 12:37:26;;;;;;;4.68;4.38;;;25.20;99.90;;;;;;5030293;28;20198;-69
2023/08/22 12:39:51;;;;;;;4.28;3.97;;;25.20;99.90;;;;;;5031308;28;20274;-69
2023/08/22 12:42:18;;;;;;;4.55;4.25;;;25.20;99.90;;;;;;5031001;28;20257;-69
2023/08/22 12:44:44;;;;;;;4.43;4.03;;;25.20;99.90;;;;;;5031066;28;20214;-69
2023/08/22 12:47:10;;;;;;;4.28;3.97;;;25.20;99.90;;;;;;5032479;28;20198;-69
2023/08/22 12:49:36;;;;;;;4.70;4.32;;;25.20;99.90;;;;;;5035416;28;20218;-69
2023/08/22 12:52:02;;;;;;;4.60;4.20;;;25.20;99.90;;;;;;5043898;28;20250;-70